Etusivu
METAR-TAF:

METAR-TAF

Lentoasemat :

Båtsfjord, Norja

Leveyspiiri: 70-38N, Pituuspiiri: 029-44E, korkeus merenpinnasta: 10 m

Tämänhetkinen sää

Tämä raportti tehtiin 44 minuuttia sitten, kello 11.20 UTC
Tuuli 29 kn etelästä
Lämpötila -2°C
Kosteus 86%
Ilmanpaine 1020 hPa
Näkyvyys 10 km tai enemmän
Muutamia pilviä 1000 ft:n korkeudessa

METAR: ENBS 211120Z 17029KT 9999 FEW010 M02/M04 Q1020

Aika: 13:04 (12:04 UTC)


TAF: puuttuu

Säähavainnot ja -ennusteet yli 4000 lentoasemalta (METAR- ja TAF-raportit).

Käytössä olevat sääasemat on merkitty karttaan keltaisilla ja punaisilla pisteillä.

Aseta hiiri pisteen päälle nähdäksesi sääaseman nimen.

Klikkaa sitten nähdäksesi säähavainnot ja -ennusteet.

Kartan vaihtaminen: klikkaa mustalla rastilla varustettuja vihreitä pisteitä, niin voit zoomata sisään; viivalla varustettua vihreää pistettä, niin voit zoomata ulos tai vihreitä nuolia, niin pääset viereisille kartoille.


METAR-TAF: